Time;durP1;ratioP1;P1;durP2;ratioP2;P2;SDS_P1;SDS_P2;PMS_P1;PMS_P2;Temp;Humidity;BMP_temperature;BMP_pressure;BME280_temperature;BME280_humidity;BME280_pressure;Samples;Min_cycle;Max_cycle;Signal;HPM_P1;HPM_P2
2023/12/06 00:00:37;;;;;;;8.88;5.93;;;1.30;99.90;;;;;;5022369;28;20124;-72
2023/12/06 00:03:03;;;;;;;7.40;4.93;;;1.30;99.90;;;;;;5021155;28;20091;-73
2023/12/06 00:05:30;;;;;;;6.45;4.88;;;1.30;99.90;;;;;;5017425;28;20421;-73
2023/12/06 00:07:55;;;;;;;7.13;4.43;;;1.30;99.90;;;;;;5004570;28;20553;-73
2023/12/06 00:10:21;;;;;;;9.55;4.78;;;1.30;99.90;;;;;;5009189;28;20124;-73
2023/12/06 00:12:47;;;;;;;4.53;3.58;;;1.30;99.90;;;;;;5026754;28;20041;-73
2023/12/06 00:15:12;;;;;;;6.40;4.70;;;1.30;99.90;;;;;;5023139;28;20102;-73
2023/12/06 00:17:38;;;;;;;6.00;4.22;;;1.30;99.90;;;;;;5027082;28;20047;-73
2023/12/06 00:20:05;;;;;;;9.77;5.22;;;1.30;99.90;;;;;;5009482;28;20083;-73
2023/12/06 00:22:31;;;;;;;10.85;5.13;;;1.30;99.90;;;;;;5024170;28;20063;-73
2023/12/06 00:24:57;;;;;;;6.20;4.75;;;1.30;99.90;;;;;;5022656;28;20051;-73
2023/12/06 00:27:23;;;;;;;8.93;5.15;;;1.30;99.90;;;;;;5025094;28;20673;-73
2023/12/06 00:29:49;;;;;;;8.13;4.22;;;1.30;99.90;;;;;;5028085;28;20438;-73
2023/12/06 00:32:14;;;;;;;8.10;5.80;;;1.30;99.90;;;;;;5019117;28;20098;-73
2023/12/06 00:34:40;;;;;;;5.88;4.05;;;1.30;99.90;;;;;;5026877;28;20049;-73
2023/12/06 00:37:06;;;;;;;7.72;5.22;;;1.30;99.90;;;;;;5026272;28;20033;-73
2023/12/06 00:39:31;;;;;;;6.80;5.03;;;1.30;99.90;;;;;;5026795;28;20160;-73
2023/12/06 00:41:57;;;;;;;5.32;4.07;;;1.30;99.90;;;;;;5025014;28;20064;-73
2023/12/06 00:44:23;;;;;;;6.97;4.90;;;1.30;99.90;;;;;;5023401;28;20454;-73
2023/12/06 00:46:49;;;;;;;7.95;5.57;;;1.30;99.90;;;;;;5026874;28;20113;-74
2023/12/06 00:49:18;;;;;;;4.20;3.03;;;1.30;99.90;;;;;;5021191;28;20995;-74
2023/12/06 00:51:43;;;;;;;8.95;6.40;;;1.30;99.90;;;;;;5010000;28;20108;-74
2023/12/06 00:54:09;;;;;;;8.25;4.78;;;1.30;99.90;;;;;;5026043;28;20501;-74
2023/12/06 00:56:35;;;;;;;9.25;5.40;;;1.40;99.90;;;;;;5030393;28;20044;-74
2023/12/06 00:59:00;;;;;;;7.65;5.40;;;1.40;99.90;;;;;;5010636;28;20126;-74
2023/12/06 01:01:26;;;;;;;9.00;6.80;;;1.40;99.90;;;;;;5005240;28;20042;-74
2023/12/06 01:03:52;;;;;;;9.38;5.43;;;1.40;99.90;;;;;;5023294;28;20041;-74
2023/12/06 01:06:18;;;;;;;5.43;4.25;;;1.40;99.90;;;;;;5040843;28;20041;-74
2023/12/06 01:08:44;;;;;;;4.05;3.55;;;1.40;99.90;;;;;;5024862;28;20041;-74
2023/12/06 01:11:09;;;;;;;8.60;5.32;;;1.40;99.90;;;;;;5024550;28;20041;-74
2023/12/06 01:13:35;;;;;;;8.93;4.95;;;1.40;99.90;;;;;;5026517;28;20069;-74
2023/12/06 01:16:01;;;;;;;9.40;5.32;;;1.40;99.90;;;;;;5023785;28;20489;-74
2023/12/06 01:18:27;;;;;;;6.97;3.63;;;1.40;99.90;;;;;;5026706;28;20448;-74
2023/12/06 01:20:52;;;;;;;7.95;5.30;;;1.50;99.90;;;;;;5022385;28;20029;-74
2023/12/06 01:23:18;;;;;;;5.88;3.75;;;1.50;99.90;;;;;;5031389;28;20531;-74
2023/12/06 01:25:44;;;;;;;12.32;5.53;;;1.40;99.90;;;;;;5025273;28;20121;-74
2023/12/06 01:28:09;;;;;;;5.68;3.78;;;1.50;99.90;;;;;;5028563;28;20512;-75
2023/12/06 01:30:36;;;;;;;10.07;7.00;;;1.60;99.90;;;;;;5016765;28;20072;-74
2023/12/06 01:33:01;;;;;;;12.60;6.75;;;1.50;99.90;;;;;;5023611;28;20037;-74
2023/12/06 01:35:27;;;;;;;8.00;5.30;;;1.50;99.90;;;;;;5023871;28;20600;-75
2023/12/06 01:37:53;;;;;;;9.90;6.40;;;1.50;99.90;;;;;;5021362;28;20455;-75
2023/12/06 01:40:18;;;;;;;7.20;4.60;;;1.50;99.90;;;;;;5027007;28;20040;-75
2023/12/06 01:42:46;;;;;;;10.32;7.38;;;1.50;99.90;;;;;;5025107;28;20061;-74
2023/12/06 01:45:13;;;;;;;7.88;4.97;;;1.50;99.90;;;;;;5023879;28;20041;-74
2023/12/06 01:47:41;;;;;;;8.57;4.82;;;1.50;99.90;;;;;;5025581;28;20345;-75
2023/12/06 01:50:08;;;;;;;7.05;5.55;;;1.50;99.90;;;;;;5028315;28;20409;-74
2023/12/06 01:52:34;;;;;;;8.98;5.15;;;1.50;99.90;;;;;;5024910;28;20096;-75
2023/12/06 01:55:00;;;;;;;6.90;4.60;;;1.50;99.90;;;;;;5026327;28;20121;-75
2023/12/06 01:57:28;;;;;;;9.48;6.10;;;1.50;99.90;;;;;;5013991;28;20120;-75
2023/12/06 01:59:55;;;;;;;9.18;5.63;;;1.50;99.90;;;;;;5012052;28;20516;-75
2023/12/06 02:02:21;;;;;;;7.93;4.43;;;1.50;99.90;;;;;;5012289;28;20035;-75
2023/12/06 02:04:47;;;;;;;9.43;5.97;;;1.50;99.90;;;;;;5025562;28;20045;-75
2023/12/06 02:07:15;;;;;;;13.23;6.45;;;1.50;99.90;;;;;;5025367;28;20044;-75
2023/12/06 02:09:40;;;;;;;8.75;5.90;;;1.60;99.90;;;;;;5022497;28;20052;-75
2023/12/06 02:12:06;;;;;;;4.82;3.70;;;1.40;99.90;;;;;;5038523;28;20490;-76
2023/12/06 02:14:34;;;;;;;8.23;4.07;;;1.50;99.90;;;;;;5022949;28;20059;-76
2023/12/06 02:17:04;;;;;;;7.47;4.35;;;1.50;99.90;;;;;;5020665;28;20036;-76
2023/12/06 02:19:31;;;;;;;9.18;5.72;;;1.50;99.90;;;;;;5020083;28;20052;-76
2023/12/06 02:21:58;;;;;;;8.32;5.88;;;1.50;99.90;;;;;;5006718;28;20052;-76
2023/12/06 02:24:27;;;;;;;6.22;3.38;;;1.60;99.90;;;;;;5009191;28;20468;-77
2023/12/06 02:26:54;;;;;;;8.98;5.20;;;1.50;99.90;;;;;;5011473;28;20524;-76
2023/12/06 02:29:20;;;;;;;5.65;3.50;;;1.50;99.90;;;;;;5023275;28;20068;-77
2023/12/06 02:31:46;;;;;;;7.28;4.85;;;1.50;99.90;;;;;;5013820;28;20052;-77
2023/12/06 02:34:16;;;;;;;8.82;5.25;;;1.60;99.90;;;;;;5041571;28;20041;-77
2023/12/06 02:36:45;;;;;;;6.55;4.72;;;1.50;99.90;;;;;;5018790;28;20180;-77
2023/12/06 02:39:11;;;;;;;7.97;4.88;;;1.50;99.90;;;;;;5029375;28;20041;-77
2023/12/06 02:41:37;;;;;;;9.80;5.25;;;1.50;99.90;;;;;;5025104;28;20052;-77
2023/12/06 02:44:03;;;;;;;8.88;5.93;;;1.60;99.90;;;;;;5019964;28;20124;-77
2023/12/06 02:46:28;;;;;;;3.05;2.28;;;1.60;99.90;;;;;;5025559;28;20041;-77
2023/12/06 02:48:56;;;;;;;7.68;3.63;;;1.60;99.90;;;;;;5029312;28;20478;-77
2023/12/06 02:51:23;;;;;;;5.32;3.95;;;1.60;99.90;;;;;;5023022;28;20153;-77
2023/12/06 02:53:50;;;;;;;6.10;5.13;;;1.60;99.90;;;;;;5027838;28;20415;-78
2023/12/06 02:56:15;;;;;;;3.95;3.25;;;1.60;99.90;;;;;;5019110;28;20037;-78
2023/12/06 02:58:41;;;;;;;10.98;5.32;;;1.60;99.90;;;;;;5041994;28;20129;-77
2023/12/06 03:01:07;;;;;;;7.93;5.32;;;1.60;99.90;;;;;;5022546;28;20505;-79
2023/12/06 03:03:32;;;;;;;5.55;3.53;;;1.60;99.90;;;;;;5023221;28;20037;-79
2023/12/06 03:05:58;;;;;;;6.57;4.90;;;1.60;99.90;;;;;;5017705;28;20116;-79
2023/12/06 03:08:25;;;;;;;6.53;4.22;;;1.60;99.90;;;;;;5022295;28;20485;-79
2023/12/06 03:10:51;;;;;;;6.75;4.75;;;1.60;99.90;;;;;;5021098;28;20056;-79
2023/12/06 03:13:16;;;;;;;11.57;4.22;;;1.60;99.90;;;;;;5028477;28;20048;-79
2023/12/06 03:15:42;;;;;;;9.00;4.45;;;1.60;99.90;;;;;;5009601;28;20040;-79
2023/12/06 03:18:08;;;;;;;4.40;3.38;;;1.60;99.90;;;;;;5013980;28;20454;-79
2023/12/06 03:20:33;;;;;;;9.95;6.03;;;1.60;99.90;;;;;;5023309;28;20091;-78
2023/12/06 03:23:00;;;;;;;7.10;3.97;;;1.60;99.90;;;;;;5028764;28;20073;-78
2023/12/06 03:25:25;;;;;;;4.70;3.13;;;1.60;99.90;;;;;;5018506;28;20072;-78
2023/12/06 03:27:51;;;;;;;5.50;3.20;;;1.60;99.90;;;;;;5024030;28;20052;-79
2023/12/06 03:30:17;;;;;;;5.18;4.07;;;1.60;99.90;;;;;;5021702;28;20490;-79
2023/12/06 03:32:43;;;;;;;4.32;2.10;;;1.60;99.90;;;;;;5024509;28;20025;-78
2023/12/06 03:35:09;;;;;;;9.20;4.15;;;1.60;99.90;;;;;;5008930;28;20088;-79
2023/12/06 03:37:34;;;;;;;5.65;3.72;;;1.60;99.90;;;;;;5029583;28;20068;-79
2023/12/06 03:40:00;;;;;;;4.22;3.55;;;1.70;99.90;;;;;;5027588;28;20501;-78
2023/12/06 03:42:26;;;;;;;5.30;3.65;;;1.70;99.90;;;;;;5023826;28;21477;-79
2023/12/06 03:44:51;;;;;;;5.55;2.47;;;1.70;99.90;;;;;;5023593;28;20041;-79
2023/12/06 03:47:17;;;;;;;5.65;3.15;;;1.70;99.90;;;;;;5026463;28;20512;-77
2023/12/06 03:49:43;;;;;;;6.90;4.50;;;1.60;99.90;;;;;;5024954;28;20041;-78
2023/12/06 03:52:09;;;;;;;5.65;3.70;;;1.70;99.90;;;;;;5024293;28;20049;-78
2023/12/06 03:54:35;;;;;;;4.60;2.90;;;1.70;99.90;;;;;;5030337;28;20045;-78
2023/12/06 03:57:01;;;;;;;5.50;3.25;;;1.80;99.90;;;;;;5023243;28;20572;-78
2023/12/06 03:59:27;;;;;;;7.40;3.58;;;1.70;99.90;;;;;;5027806;28;20041;-78
2023/12/06 04:01:53;;;;;;;4.15;3.42;;;1.70;99.90;;;;;;5026308;28;20040;-78
2023/12/06 04:04:18;;;;;;;3.03;2.10;;;1.70;99.90;;;;;;5015227;28;20037;-78
2023/12/06 04:06:44;;;;;;;4.15;3.35;;;1.70;99.90;;;;;;5029160;28;20408;-78
2023/12/06 04:09:10;;;;;;;5.68;3.47;;;1.70;99.90;;;;;;5025582;28;20045;-78
2023/12/06 04:11:37;;;;;;;4.53;3.03;;;1.70;99.90;;;;;;5019662;28;20091;-79
2023/12/06 04:14:03;;;;;;;4.68;3.40;;;1.80;99.90;;;;;;5023753;28;20124;-78
2023/12/06 04:16:31;;;;;;;6.22;3.67;;;1.70;99.90;;;;;;5028873;28;20071;-78
2023/12/06 04:18:57;;;;;;;5.03;3.30;;;1.70;99.90;;;;;;5028105;28;20090;-79
2023/12/06 04:21:24;;;;;;;3.70;2.40;;;1.70;99.90;;;;;;5027109;28;20746;-79
2023/12/06 04:23:50;;;;;;;7.55;3.92;;;1.80;99.90;;;;;;5030096;28;20041;-78
2023/12/06 04:26:15;;;;;;;3.80;1.90;;;1.70;99.90;;;;;;5008795;28;20528;-79
2023/12/06 04:28:41;;;;;;;5.55;3.63;;;1.70;99.90;;;;;;5027937;28;20505;-79
2023/12/06 04:31:07;;;;;;;4.22;2.83;;;1.80;99.90;;;;;;5028729;28;20504;-80
2023/12/06 04:33:32;;;;;;;5.15;3.22;;;1.80;99.90;;;;;;5041525;28;20037;-79
2023/12/06 04:35:58;;;;;;;6.65;3.83;;;1.80;99.90;;;;;;5025907;28;20036;-79
2023/12/06 04:38:24;;;;;;;5.43;2.83;;;1.90;99.90;;;;;;5022684;28;20099;-79
2023/12/06 04:40:50;;;;;;;2.22;1.73;;;1.80;99.90;;;;;;5023281;28;20049;-78
2023/12/06 04:43:18;;;;;;;3.85;2.15;;;1.90;99.90;;;;;;5021557;28;20037;-79
2023/12/06 04:45:44;;;;;;;1.73;1.55;;;1.90;99.90;;;;;;5031986;28;20119;-80
2023/12/06 04:48:10;;;;;;;5.82;3.05;;;1.90;99.90;;;;;;5027503;28;20136;-79
2023/12/06 04:50:36;;;;;;;4.15;2.53;;;1.90;99.90;;;;;;5018691;28;20045;-80
2023/12/06 04:53:01;;;;;;;3.90;2.95;;;2.00;99.90;;;;;;5023670;28;20130;-79
2023/12/06 04:55:27;;;;;;;4.20;2.55;;;1.90;99.90;;;;;;5028029;28;20151;-79
2023/12/06 04:57:52;;;;;;;5.30;2.63;;;1.90;99.90;;;;;;5019237;28;20045;-78
2023/12/06 05:00:18;;;;;;;5.10;2.83;;;1.90;99.90;;;;;;5040928;28;20119;-78
2023/12/06 05:02:44;;;;;;;4.00;2.95;;;1.90;99.90;;;;;;5025531;28;20043;-77
2023/12/06 05:05:10;;;;;;;3.17;2.50;;;1.90;99.90;;;;;;5027282;28;20037;-77
2023/12/06 05:07:36;;;;;;;2.80;2.05;;;1.90;99.90;;;;;;5026345;28;20033;-78
2023/12/06 05:10:03;;;;;;;1.77;1.63;;;1.90;99.90;;;;;;5041270;28;20412;-76
2023/12/06 05:12:29;;;;;;;4.00;2.83;;;1.90;99.90;;;;;;5040097;28;20444;-78
2023/12/06 05:14:54;;;;;;;2.70;2.47;;;1.90;99.90;;;;;;5026324;28;20040;-76
2023/12/06 05:17:20;;;;;;;3.20;2.88;;;1.90;99.90;;;;;;5021928;28;20095;-78
2023/12/06 05:19:46;;;;;;;2.70;2.13;;;1.90;99.90;;;;;;5017382;28;20528;-77
2023/12/06 05:22:12;;;;;;;2.53;1.90;;;1.90;99.90;;;;;;5028106;28;20041;-76
2023/12/06 05:24:37;;;;;;;3.60;2.42;;;1.90;99.90;;;;;;5026347;28;20069;-77
2023/12/06 05:27:03;;;;;;;5.45;3.53;;;1.90;99.90;;;;;;5018529;28;20033;-76
2023/12/06 05:29:29;;;;;;;3.47;2.60;;;1.90;99.90;;;;;;5027001;28;20047;-77
2023/12/06 05:31:55;;;;;;;3.00;2.70;;;1.90;99.90;;;;;;5027418;28;20076;-76
2023/12/06 05:34:21;;;;;;;3.67;3.03;;;1.90;99.90;;;;;;5026637;28;20120;-78
2023/12/06 05:36:47;;;;;;;3.25;2.50;;;1.90;99.90;;;;;;5018849;28;20486;-78
2023/12/06 05:39:12;;;;;;;3.33;2.63;;;2.00;99.90;;;;;;5024756;28;20417;-75
2023/12/06 05:41:38;;;;;;;3.45;1.83;;;2.00;99.90;;;;;;5024555;28;20071;-76
2023/12/06 05:44:05;;;;;;;5.35;2.42;;;2.00;99.90;;;;;;5024111;28;20041;-75
2023/12/06 05:46:31;;;;;;;4.40;3.17;;;2.00;99.90;;;;;;5022313;28;20072;-75
2023/12/06 05:48:57;;;;;;;3.85;2.70;;;2.00;99.90;;;;;;5028206;28;20501;-75
2023/12/06 05:51:23;;;;;;;3.90;2.63;;;2.00;99.90;;;;;;5026716;28;20122;-75
2023/12/06 05:53:49;;;;;;;3.88;2.72;;;2.00;99.90;;;;;;5023207;28;20045;-75
2023/12/06 05:56:15;;;;;;;4.25;3.28;;;2.00;99.90;;;;;;5022215;28;20037;-73
2023/12/06 05:58:41;;;;;;;4.07;3.15;;;2.10;99.90;;;;;;5026369;28;20083;-74
2023/12/06 06:01:07;;;;;;;2.22;1.77;;;2.00;99.90;;;;;;5024226;28;20529;-75
2023/12/06 06:03:34;;;;;;;3.70;2.75;;;2.00;99.90;;;;;;5025823;28;20504;-75
2023/12/06 06:06:07;;;;;;;3.83;2.10;;;2.00;99.90;;;;;;5020908;28;20067;-75
2023/12/06 06:08:36;;;;;;;3.63;2.47;;;2.00;99.90;;;;;;5022168;28;20556;-75
2023/12/06 06:11:02;;;;;;;3.10;1.98;;;2.00;99.90;;;;;;5023220;28;20096;-75
2023/12/06 06:13:29;;;;;;;4.30;2.75;;;2.00;99.90;;;;;;5037432;28;20068;-75
2023/12/06 06:15:58;;;;;;;5.00;2.90;;;2.00;99.90;;;;;;5027436;28;20033;-74
2023/12/06 06:18:24;;;;;;;3.33;2.95;;;2.00;99.90;;;;;;5040170;28;20045;-74
2023/12/06 06:20:51;;;;;;;5.22;3.42;;;2.00;99.90;;;;;;5025388;28;20370;-75
2023/12/06 06:23:17;;;;;;;3.40;1.88;;;2.00;99.90;;;;;;5026645;28;20119;-75
2023/12/06 06:25:42;;;;;;;3.33;2.55;;;2.10;99.90;;;;;;5023474;28;20124;-73
2023/12/06 06:28:08;;;;;;;3.92;2.40;;;2.00;99.90;;;;;;5012297;28;20041;-75
2023/12/06 06:30:34;;;;;;;2.53;1.98;;;2.10;99.90;;;;;;5026261;28;20114;-75
2023/12/06 06:32:59;;;;;;;3.13;2.42;;;2.10;99.90;;;;;;5043226;28;20037;-75
2023/12/06 06:35:25;;;;;;;2.72;1.98;;;2.10;99.90;;;;;;5015961;28;20544;-74
2023/12/06 06:37:51;;;;;;;4.80;2.42;;;2.10;99.90;;;;;;5023766;28;20041;-75
2023/12/06 06:40:16;;;;;;;5.15;3.30;;;2.10;99.90;;;;;;5024426;28;20794;-74
2023/12/06 06:42:42;;;;;;;7.13;4.32;;;2.10;99.90;;;;;;5023128;28;20041;-74
2023/12/06 06:45:09;;;;;;;4.53;3.35;;;2.10;99.90;;;;;;5022686;28;20053;-74
2023/12/06 06:47:38;;;;;;;3.97;2.83;;;2.10;99.90;;;;;;5020972;28;20037;-73
2023/12/06 06:50:04;;;;;;;3.33;2.72;;;2.10;99.90;;;;;;5021258;28;20047;-74
2023/12/06 06:52:36;;;;;;;3.83;2.45;;;2.10;99.90;;;;;;5017408;28;20087;-74
2023/12/06 06:55:02;;;;;;;3.85;2.58;;;2.20;99.90;;;;;;5020058;28;20045;-75
2023/12/06 06:57:29;;;;;;;5.80;4.05;;;2.20;99.90;;;;;;5022118;28;20095;-74
2023/12/06 06:59:54;;;;;;;3.25;2.53;;;2.20;99.90;;;;;;5023163;28;20038;-75
2023/12/06 07:02:20;;;;;;;4.75;3.63;;;2.20;99.90;;;;;;5022153;28;20037;-75
2023/12/06 07:04:46;;;;;;;2.75;2.17;;;2.30;99.90;;;;;;5041399;28;20323;-75
2023/12/06 07:07:12;;;;;;;2.30;2.08;;;2.30;99.90;;;;;;5018360;28;20033;-74
2023/12/06 07:09:38;;;;;;;7.07;2.85;;;2.30;99.90;;;;;;5021473;28;20038;-74
2023/12/06 07:12:04;;;;;;;2.53;2.22;;;2.30;99.90;;;;;;5027278;28;20072;-74
2023/12/06 07:14:30;;;;;;;3.92;2.72;;;2.30;99.90;;;;;;5029407;28;20045;-74
2023/12/06 07:16:57;;;;;;;3.40;2.30;;;2.20;99.90;;;;;;5024016;28;20051;-74
2023/12/06 07:19:23;;;;;;;3.10;2.58;;;2.30;99.90;;;;;;5022938;28;20033;-75
2023/12/06 07:21:49;;;;;;;4.47;2.58;;;2.30;99.90;;;;;;5026322;28;20451;-74
2023/12/06 07:24:15;;;;;;;3.35;2.35;;;2.30;99.90;;;;;;5015559;28;20068;-74
2023/12/06 07:26:42;;;;;;;6.82;3.40;;;2.30;99.90;;;;;;5033499;28;20190;-74
2023/12/06 07:29:08;;;;;;;3.20;2.92;;;2.30;99.90;;;;;;5037305;28;20528;-74
2023/12/06 07:31:34;;;;;;;3.75;3.38;;;2.30;99.90;;;;;;5032517;28;20029;-73
2023/12/06 07:34:00;;;;;;;2.78;2.40;;;2.30;99.90;;;;;;5037730;28;20087;-73
2023/12/06 07:36:25;;;;;;;3.97;2.95;;;2.30;99.90;;;;;;5029484;28;20029;-73
2023/12/06 07:38:51;;;;;;;3.22;2.30;;;2.40;99.90;;;;;;5031373;28;20055;-73
2023/12/06 07:41:17;;;;;;;2.15;1.42;;;2.30;99.90;;;;;;5013457;28;20042;-73
2023/12/06 07:43:43;;;;;;;3.25;2.75;;;2.30;99.90;;;;;;5029878;28;20081;-74
2023/12/06 07:46:08;;;;;;;3.00;2.25;;;2.30;99.90;;;;;;5030024;28;20051;-72
2023/12/06 07:48:34;;;;;;;1.63;1.52;;;2.30;99.90;;;;;;5033053;28;20045;-72
2023/12/06 07:51:01;;;;;;;2.97;2.65;;;2.40;99.90;;;;;;5051133;28;20725;-72
2023/12/06 07:53:27;;;;;;;2.65;1.65;;;2.40;99.90;;;;;;5041327;28;20056;-72
2023/12/06 07:55:55;;;;;;;2.00;1.85;;;2.40;99.90;;;;;;5046321;28;20493;-70
2023/12/06 07:58:30;;;;;;;3.47;2.03;;;2.40;99.90;;;;;;5035226;28;20041;-72
2023/12/06 08:00:59;;;;;;;4.25;2.28;;;2.40;99.90;;;;;;5045559;28;20040;-71
2023/12/06 08:03:31;;;;;;;3.53;2.17;;;2.40;99.90;;;;;;5040074;28;20179;-72
2023/12/06 08:05:59;;;;;;;4.35;2.05;;;2.40;99.90;;;;;;5035273;28;20124;-71
2023/12/06 08:08:26;;;;;;;2.33;2.03;;;2.40;99.90;;;;;;5034801;28;20047;-72
2023/12/06 08:10:52;;;;;;;2.58;1.75;;;2.50;99.90;;;;;;5029115;28;20049;-71
2023/12/06 08:13:18;;;;;;;1.70;1.45;;;2.50;99.90;;;;;;5057543;28;20041;-72
2023/12/06 08:15:44;;;;;;;2.28;1.75;;;2.50;99.90;;;;;;5030337;28;20029;-72
2023/12/06 08:18:10;;;;;;;2.55;1.85;;;2.50;99.90;;;;;;5034897;28;20060;-72
2023/12/06 08:20:36;;;;;;;3.53;1.92;;;2.60;99.90;;;;;;5034255;28;20048;-71
2023/12/06 08:23:05;;;;;;;3.30;1.85;;;2.60;99.90;;;;;;5035764;28;20041;-72
2023/12/06 08:25:30;;;;;;;1.90;1.70;;;2.60;99.90;;;;;;5029944;28;20090;-72
2023/12/06 08:27:57;;;;;;;2.92;2.20;;;2.60;99.90;;;;;;5030881;28;20045;-72
2023/12/06 08:30:23;;;;;;;1.75;1.35;;;2.60;99.90;;;;;;5038440;28;20132;-73
2023/12/06 08:32:48;;;;;;;2.35;2.15;;;2.60;99.90;;;;;;5031642;28;20089;-73
2023/12/06 08:35:14;;;;;;;2.72;2.13;;;2.60;99.90;;;;;;5025776;28;20520;-72
2023/12/06 08:37:40;;;;;;;2.40;2.03;;;2.60;99.90;;;;;;5052974;28;20051;-72
2023/12/06 08:40:08;;;;;;;2.38;1.50;;;2.60;99.90;;;;;;5031002;28;20067;-73
2023/12/06 08:42:34;;;;;;;2.25;1.83;;;2.60;99.90;;;;;;5032137;28;20112;-73
2023/12/06 08:45:00;;;;;;;6.60;2.30;;;2.70;99.90;;;;;;5031549;28;20438;-72
2023/12/06 08:47:25;;;;;;;2.80;2.03;;;2.70;99.90;;;;;;5037855;28;20037;-72
2023/12/06 08:49:51;;;;;;;1.48;1.38;;;2.60;99.90;;;;;;5024566;28;20037;-73
2023/12/06 08:52:17;;;;;;;2.67;2.10;;;2.80;99.90;;;;;;5029153;28;20049;-72
2023/12/06 08:54:43;;;;;;;1.50;1.33;;;2.60;99.90;;;;;;5028145;28;20498;-73
2023/12/06 08:57:08;;;;;;;8.55;2.72;;;2.70;99.90;;;;;;5017669;28;20044;-72
2023/12/06 08:59:34;;;;;;;34.95;19.42;;;2.70;99.90;;;;;;5032441;28;20495;-73
2023/12/06 09:02:00;;;;;;;6.30;4.15;;;2.70;99.90;;;;;;5047462;28;20039;-72
2023/12/06 09:04:25;;;;;;;11.82;3.40;;;2.70;99.90;;;;;;5029039;28;20049;-73
2023/12/06 09:06:51;;;;;;;2.63;1.88;;;2.70;99.90;;;;;;5023546;28;20048;-72
2023/12/06 09:09:17;;;;;;;4.07;1.85;;;2.80;99.90;;;;;;5027703;28;20045;-72
2023/12/06 09:11:44;;;;;;;2.45;1.80;;;2.80;99.90;;;;;;5030431;28;20124;-72
2023/12/06 09:14:10;;;;;;;6.53;1.67;;;2.80;99.90;;;;;;5029247;28;20095;-73
2023/12/06 09:16:36;;;;;;;1.67;1.58;;;2.80;99.90;;;;;;5023550;28;20041;-73
2023/12/06 09:19:03;;;;;;;4.28;2.25;;;2.90;99.90;;;;;;5038278;28;20076;-72
2023/12/06 09:21:39;;;;;;;3.25;2.30;;;2.80;99.90;;;;;;5027200;28;20512;-73
2023/12/06 09:24:06;;;;;;;4.75;2.40;;;2.80;99.90;;;;;;5025070;28;20049;-73
2023/12/06 09:26:32;;;;;;;2.15;1.55;;;2.90;99.90;;;;;;5017261;28;20056;-73
2023/12/06 09:28:57;;;;;;;2.58;1.90;;;2.90;99.90;;;;;;5028729;28;20037;-73
2023/12/06 09:31:23;;;;;;;7.10;2.70;;;2.90;99.90;;;;;;5023923;28;20048;-73
2023/12/06 09:33:49;;;;;;;1.73;1.55;;;2.90;99.90;;;;;;5021358;28;20355;-73
2023/12/06 09:36:14;;;;;;;4.47;2.22;;;2.90;99.90;;;;;;5016110;28;20033;-73
2023/12/06 09:38:40;;;;;;;2.78;2.08;;;2.90;99.90;;;;;;5015556;28;20045;-74
2023/12/06 09:41:06;;;;;;;2.72;1.77;;;3.00;99.90;;;;;;5011960;28;20073;-74
2023/12/06 09:43:33;;;;;;;1.63;1.27;;;3.00;99.90;;;;;;5021367;28;20041;-73
2023/12/06 09:45:58;;;;;;;6.45;2.50;;;3.00;99.90;;;;;;5021315;28;20417;-72
2023/12/06 09:48:24;;;;;;;3.03;1.77;;;3.00;99.90;;;;;;5021272;28;20048;-74
2023/12/06 09:50:50;;;;;;;2.45;1.73;;;3.00;99.90;;;;;;5022750;28;20069;-74
2023/12/06 09:53:16;;;;;;;2.60;2.08;;;3.00;99.90;;;;;;5017644;28;20501;-74
2023/12/06 09:55:42;;;;;;;3.53;2.55;;;3.10;99.90;;;;;;5022131;28;20064;-74
2023/12/06 09:58:07;;;;;;;3.10;1.67;;;3.00;99.90;;;;;;5023778;28;20080;-74
2023/12/06 10:00:34;;;;;;;4.57;2.28;;;3.00;99.90;;;;;;5024046;28;20481;-74
2023/12/06 10:03:00;;;;;;;1.30;1.20;;;3.10;99.90;;;;;;5026281;28;20091;-74
2023/12/06 10:05:26;;;;;;;2.50;1.70;;;3.10;99.90;;;;;;5024814;28;20037;-74
2023/12/06 10:07:52;;;;;;;2.55;1.95;;;3.10;99.90;;;;;;5020206;28;20037;-74
2023/12/06 10:10:19;;;;;;;1.80;1.58;;;3.10;99.90;;;;;;5009462;28;20040;-74
2023/12/06 10:12:58;;;;;;;1.92;1.63;;;3.20;99.90;;;;;;5022517;28;20393;-73
2023/12/06 10:15:24;;;;;;;1.63;1.52;;;3.10;99.90;;;;;;5023716;28;20068;-74
2023/12/06 10:17:50;;;;;;;2.53;1.88;;;3.20;99.90;;;;;;5018300;28;20102;-74
2023/12/06 10:20:17;;;;;;;3.35;2.08;;;3.20;99.90;;;;;;5021578;28;20065;-74
2023/12/06 10:22:45;;;;;;;2.55;1.70;;;3.30;99.90;;;;;;5018361;28;20424;-74
2023/12/06 10:25:11;;;;;;;3.42;2.47;;;3.20;99.90;;;;;;5031079;28;20378;-74
2023/12/06 10:27:37;;;;;;;4.78;2.05;;;3.30;99.90;;;;;;5010176;28;20044;-74
2023/12/06 10:30:05;;;;;;;2.78;2.20;;;3.30;99.90;;;;;;5021307;28;20505;-74
2023/12/06 10:32:32;;;;;;;2.30;1.63;;;3.30;99.90;;;;;;5027461;28;20536;-75
2023/12/06 10:35:03;;;;;;;2.03;1.73;;;3.40;99.90;;;;;;5022778;28;20045;-74
2023/12/06 10:37:30;;;;;;;3.40;2.22;;;3.40;99.90;;;;;;5023684;28;20098;-74
2023/12/06 10:40:11;;;;;;;2.78;1.80;;;3.50;99.90;;;;;;5026742;28;20106;-74
2023/12/06 10:42:43;;;;;;;2.45;2.25;;;3.40;99.90;;;;;;5025503;28;20045;-75
2023/12/06 10:45:10;;;;;;;3.75;2.10;;;3.50;99.90;;;;;;5023209;28;20171;-75
2023/12/06 10:47:38;;;;;;;3.53;2.17;;;3.50;99.90;;;;;;5025226;28;20122;-75
2023/12/06 10:50:05;;;;;;;1.40;1.20;;;3.50;99.90;;;;;;5025583;28;20064;-75
2023/12/06 10:52:32;;;;;;;3.92;2.22;;;3.60;99.90;;;;;;5003142;28;20145;-75
2023/12/06 10:54:59;;;;;;;1.95;1.58;;;3.60;99.90;;;;;;5022944;28;20536;-75
2023/12/06 10:57:25;;;;;;;4.68;2.58;;;3.50;99.90;;;;;;5024421;28;20504;-75
2023/12/06 10:59:53;;;;;;;3.72;1.63;;;3.60;99.90;;;;;;5023510;28;20064;-76
2023/12/06 11:02:20;;;;;;;3.25;1.88;;;3.60;99.90;;;;;;5036906;28;20044;-75
2023/12/06 11:04:50;;;;;;;4.57;2.45;;;3.60;99.90;;;;;;5020724;28;20116;-75
2023/12/06 11:07:48;;;;;;;2.03;1.55;;;3.60;99.90;;;;;;5039932;28;20033;-76
2023/12/06 11:10:44;;;;;;;2.10;1.85;;;3.60;99.90;;;;;;5017068;28;20124;-76
2023/12/06 11:13:30;;;;;;;4.43;2.00;;;3.50;99.90;;;;;;5021928;28;20049;-76
2023/12/06 11:16:03;;;;;;;2.78;2.03;;;3.60;99.90;;;;;;5026527;28;20167;-76
2023/12/06 11:18:42;;;;;;;4.25;2.58;;;3.70;99.90;;;;;;5022091;28;20048;-76
2023/12/06 11:21:08;;;;;;;3.70;2.08;;;3.60;99.90;;;;;;5024359;28;20049;-76
2023/12/06 11:23:35;;;;;;;2.65;1.63;;;3.60;99.90;;;;;;5022484;28;20489;-76
2023/12/06 11:26:01;;;;;;;4.25;2.70;;;3.70;99.90;;;;;;5022318;28;20082;-77
2023/12/06 11:28:27;;;;;;;2.30;2.10;;;3.70;99.90;;;;;;5021070;28;20445;-77
2023/12/06 11:30:56;;;;;;;2.20;1.75;;;3.70;99.90;;;;;;5015277;28;20036;-77
2023/12/06 11:33:21;;;;;;;3.38;2.33;;;3.70;99.90;;;;;;5022413;28;20455;-77
2023/12/06 11:35:53;;;;;;;2.08;1.65;;;3.80;99.90;;;;;;5019344;28;20037;-77
2023/12/06 11:38:19;;;;;;;2.90;2.17;;;3.80;99.90;;;;;;5019870;28;20044;-77
2023/12/06 11:40:52;;;;;;;4.22;1.90;;;3.80;99.90;;;;;;5031434;28;20041;-76
2023/12/06 11:43:28;;;;;;;3.22;2.70;;;3.80;99.90;;;;;;5026261;28;20051;-76
2023/12/06 11:46:01;;;;;;;2.75;1.70;;;3.80;99.90;;;;;;5022210;28;20524;-76
2023/12/06 11:48:27;;;;;;;1.75;1.23;;;3.80;99.90;;;;;;5021586;28;20053;-76
2023/12/06 11:50:58;;;;;;;2.88;2.03;;;3.90;99.90;;;;;;5016852;28;20397;-79
2023/12/06 11:53:26;;;;;;;1.88;1.52;;;3.80;99.90;;;;;;5024824;28;20057;-77
2023/12/06 11:55:53;;;;;;;2.85;2.17;;;3.90;99.90;;;;;;5020132;28;20374;-76
2023/12/06 11:58:20;;;;;;;2.65;1.88;;;3.90;99.90;;;;;;5004025;28;20029;-77
2023/12/06 12:00:52;;;;;;;4.30;2.33;;;3.90;99.90;;;;;;5025604;28;20052;-76
2023/12/06 12:03:19;;;;;;;1.48;1.15;;;3.90;99.90;;;;;;5019946;28;20440;-77
2023/12/06 12:05:46;;;;;;;2.95;2.33;;;3.90;99.90;;;;;;5014047;28;20052;-78
2023/12/06 12:08:12;;;;;;;3.42;2.33;;;4.00;99.90;;;;;;5023961;28;20041;-77
2023/12/06 12:10:40;;;;;;;5.38;1.80;;;3.90;99.90;;;;;;5025991;28;20500;-78
2023/12/06 12:13:24;;;;;;;2.80;2.08;;;4.00;99.90;;;;;;5025830;28;20393;-77
2023/12/06 12:15:59;;;;;;;1.63;1.52;;;3.90;99.90;;;;;;5011037;28;20182;-77
2023/12/06 12:18:26;;;;;;;3.92;2.00;;;4.00;99.90;;;;;;5031150;28;20041;-77
2023/12/06 12:20:52;;;;;;;3.95;1.95;;;3.90;99.90;;;;;;5031568;28;20045;-77
2023/12/06 12:23:18;;;;;;;8.50;1.83;;;3.90;99.90;;;;;;5010355;28;20489;-77
2023/12/06 12:25:48;;;;;;;2.58;2.05;;;4.00;99.90;;;;;;5027856;28;20039;-77
2023/12/06 12:28:18;;;;;;;5.90;2.40;;;3.90;99.90;;;;;;5029202;28;20489;-77
2023/12/06 12:30:46;;;;;;;2.92;2.58;;;3.80;99.90;;;;;;5026101;28;20140;-77
2023/12/06 12:33:14;;;;;;;1.40;1.30;;;3.90;99.90;;;;;;5027788;28;20076;-77
2023/12/06 12:35:40;;;;;;;3.67;2.53;;;3.90;99.90;;;;;;5023369;28;20044;-77
2023/12/06 12:38:08;;;;;;;2.25;1.27;;;3.90;99.90;;;;;;5023181;28;20045;-77
2023/12/06 12:40:34;;;;;;;4.45;1.75;;;3.90;99.90;;;;;;5028631;28;20037;-76
2023/12/06 12:43:00;;;;;;;2.95;1.50;;;3.90;99.90;;;;;;5028130;28;20124;-76
2023/12/06 12:45:26;;;;;;;2.15;1.60;;;3.90;99.90;;;;;;5024194;28;20116;-75
2023/12/06 12:47:53;;;;;;;7.18;2.33;;;3.90;99.90;;;;;;5040276;28;20047;-76
2023/12/06 12:50:20;;;;;;;1.95;1.38;;;3.90;99.90;;;;;;5026764;28;20041;-76
2023/12/06 12:52:47;;;;;;;1.88;1.05;;;3.90;99.90;;;;;;5025749;28;20102;-76
2023/12/06 12:55:15;;;;;;;4.88;0.88;;;3.90;99.90;;;;;;5032033;28;20088;-76